• Join FlightAware (Why Join?)
  • Login
  • US Flag 
10:30PM EDT


 

Airport Tracker/Info


-or-


 

Live Flight TrackerFlight Track Log ✈ EJA583 ✈ 17-Jul-2013 ✈ KPDX - KMYV

Flight Track Log - Related Links

Times and Time Zones

All times are in EDT time to prevent confusion due to time zone crossing. See the EJA583 flight status page for this flight to view local times or setup timezone preferences in your user account.

Time Position Orientation Groundspeed Altitude Reporting Facility
EDT Latitude Longitude Course Direction KTS MPH feet Rate Location/Type
11:22AM 45.6025 -122.6383 305° West 188 216 2,300  Level Seattle Center
11:23AM 45.6319 -122.7208 297° West 220 253 5,500 3,540 Climbing Seattle Center
11:24AM 45.6408 -122.8394 276° West 263 303 9,600 3,120 Climbing Seattle Center
11:25AM 45.5719 -122.8392 180° South 279 321 11,900 2,340 Climbing Seattle Center
11:26AM 45.5022 -122.7733 146° Southeast 301 346 14,400 2,220 Climbing Seattle Center
11:27AM 45.4119 -122.7456 168° South 337 388 16,500 1,980 Climbing Seattle Center
11:28AM 45.3183 -122.7364 176° South 340 391 18,500 2,100 Climbing Seattle Center
11:29AM 45.2203 -122.7261 176° South 349 402 20,900 2,280 Climbing Seattle Center
11:30AM 45.1206 -122.7153 176° South 357 411 23,200 2,280 Climbing Seattle Center
11:31AM 45.0214 -122.7053 176° South 356 410 25,600 2,220 Climbing Seattle Center
11:32AM 44.9275 -122.7261 189° South 343 395 27,800 1,920 Climbing Seattle Center
11:33AM 44.8367 -122.7550 193° South 335 386 29,600 1,620 Climbing Seattle Center
11:35AM 44.7428 -122.7869 194° South 343 395 31,100 1,560 Climbing Seattle Center
11:36AM 44.6486 -122.8206 194° South 348 400 32,800 1,560 Climbing Seattle Center
11:37AM 44.5533 -122.8553 195° South 350 403 34,300 1,440 Climbing Seattle Center
11:38AM 44.4592 -122.8903 195° South 349 402 35,800 1,260 Climbing Seattle Center
11:39AM 44.3461 -122.9119 188° South 351 404 37,000 540 Climbing Seattle Center
11:40AM 44.2422 -122.8944 173° South 378 435 37,000  Level Seattle Center
11:41AM 44.1311 -122.8758 173° South 393 452 37,000  Level Seattle Center
11:42AM 44.0217 -122.8581 173° South 394 453 37,000  Level Seattle Center
11:43AM 43.9139 -122.8400 173° South 391 450 37,000  Level Seattle Center
11:44AM 43.8058 -122.8225 173° South 389 448 37,000  Level Seattle Center
11:45AM 43.7000 -122.8036 173° South 385 443 37,000  Level Seattle Center
11:46AM 43.5928 -122.7853 173° South 386 444 37,000  Level Seattle Center
11:47AM 43.4875 -122.7678 173° South 383 441 37,000  Level Seattle Center
11:48AM 43.3819 -122.7517 174° South 381 438 37,000  Level Seattle Center
11:49AM 43.2769 -122.7336 173° South 380 437 37,000  Level Seattle Center
11:50AM 43.1514 -122.6994 169° South 382 440 37,000  Level Seattle Center
11:51AM 43.0481 -122.6672 167° South 382 440 37,000  Level Seattle Center
11:52AM 42.9456 -122.6350 167° South 380 437 37,000  Level Seattle Center
11:53AM 42.8417 -122.6042 168° South 381 438 37,000  Level Seattle Center
11:54AM 42.7378 -122.5739 168° South 381 438 37,000  Level Seattle Center
11:55AM 42.6358 -122.5450 168° South 380 437 37,000  Level Seattle Center
11:56AM 42.5342 -122.5139 167° South 377 434 37,000  Level Seattle Center
11:57AM 42.4322 -122.4844 168° South 376 433 37,000  Level Seattle Center
11:58AM 42.3303 -122.4556 168° South 376 433 37,000  Level Seattle Center
11:59AM 42.2286 -122.4267 168° South 376 433 37,000  Level Seattle Center
12:00PM 42.1069 -122.3933 169° South 376 433 37,000  Level Seattle Center
12:01PM 42.0053 -122.3639 168° South 376 433 37,000  Level Seattle Center
12:02PM 41.9044 -122.3350 168° South 375 432 37,000  Level Seattle Center
12:03PM 41.8028 -122.3072 168° South 376 433 37,000  Level Seattle Center
12:04PM 41.7006 -122.2781 168° South 378 435 37,000  Level Seattle Center
12:05PM 41.5983 -122.2494 168° South 378 435 37,000  Level Seattle Center
12:06PM 41.4972 -122.2211 168° South 375 432 37,000  Level Seattle Center
12:07PM 41.3847 -122.1900 168° South 373 429 37,000  Level Seattle Center
12:08PM 41.2836 -122.1611 168° South 372 428 37,000  Level Seattle Center
12:09PM 41.1744 -122.1308 168° South 371 427 37,000  Level Seattle Center
12:10PM 41.0825 -122.1042 168° South 371 427 37,000  Level Seattle Center
12:11PM 40.9814 -122.0767 168° South 371 427 37,000  Level Seattle Center
12:12PM 40.8800 -122.0478 168° South 372 428 37,000  Level Seattle Center
12:13PM 40.7792 -122.0203 168° South 370 426 37,000  Level Seattle Center
12:14PM 40.6597 -121.9878 168° South 366 421 37,000 -660 Level Seattle Center
12:15PM 40.5606 -121.9608 168° South 364 419 35,700 -1,560 Descending Seattle Center
12:16PM 40.4669 -121.9344 168° South 347 399 33,900 -1,860 Descending Seattle Center
12:17PM 40.3697 -121.9078 168° South 352 405 32,000 -1,860 Descending Seattle Center
12:18PM 40.2631 -121.8789 168° South 383 441 30,200 -1,860 Descending Seattle Center
12:19PM 40.1511 -121.8481 168° South 405 466 28,300 -2,220 Descending Seattle Center
12:20PM 40.0375 -121.8192 169° South 412 474 25,800 -2,400 Descending Seattle Center
12:22PM 39.8814 -121.7744 168° South 407 468 22,300 -2,400 Descending Oakland Center
12:23PM 39.7744 -121.7458 168° South 394 453 19,800 -2,640 Descending Oakland Center
12:24PM 39.6522 -121.7136 169° South 375 432 16,900 -2,700 Descending Oakland Center
12:25PM 39.5525 -121.6869 168° South 366 421 14,300 -2,460 Descending Oakland Center
12:26PM 39.4586 -121.6617 168° South 355 409 11,900 -2,400 Descending Oakland Center
12:27PM 39.3753 -121.6406 169° South 306 352 9,400 -2,580 Descending Oakland Center
12:28PM 39.3000 -121.6208 169° South 280 322 6,700 -2,700 Descending Oakland Center
12:29PM 39.2278 -121.6017 168° South 267 307 3,900 -2,340 Descending Oakland Center
12:30PM 39.1611 -121.5867 170° South 260 299 2,000 -1,920 Descending Oakland Center